createdAt,value
2022-09-23T00:30:32.282Z,86.69
2022-09-23T00:30:32.303Z,86.73
2022-09-23T00:30:38.036Z,87.8
2022-09-23T00:35:36.522Z,86.05
2022-09-23T00:35:40.287Z,86.05
2022-09-23T00:40:01.681Z,85.01
2022-09-23T00:40:01.716Z,85.01
2022-09-23T00:45:01.162Z,84.63
2022-09-23T00:45:02.143Z,84.63
2022-09-23T00:50:01.174Z,84.34
2022-09-23T00:50:01.799Z,84.34
2022-09-23T00:55:01.565Z,84.11
2022-09-23T00:55:01.575Z,84.11
2022-09-23T01:00:01.272Z,83.8
2022-09-23T01:00:02.149Z,83.8
2022-09-23T01:05:01.707Z,83.39
2022-09-23T01:05:02.004Z,83.39
2022-09-23T01:10:01.241Z,83.46
2022-09-23T01:10:02.059Z,83.46
2022-09-23T01:15:01.207Z,83.53
2022-09-23T01:15:02.299Z,83.53
2022-09-23T01:20:01.317Z,83.16
2022-09-23T01:20:01.341Z,83.16
2022-09-23T01:25:01.608Z,83.23
2022-09-23T01:25:01.772Z,83.23
2022-09-23T01:30:01.396Z,82.99
2022-09-23T01:30:01.614Z,82.99
2022-09-23T01:35:01.858Z,83.28
2022-09-23T01:35:02.075Z,83.28
2022-09-23T01:40:01.470Z,85.34
2022-09-23T01:40:02.860Z,85.34
2022-09-23T01:45:01.589Z,86.71
2022-09-23T01:45:01.847Z,86.71
2022-09-23T01:50:01.334Z,88.2
2022-09-23T01:50:01.421Z,88.2
2022-09-23T01:55:01.850Z,89.78
2022-09-23T01:55:01.943Z,89.78
2022-09-23T02:00:01.549Z,91.77
2022-09-23T02:00:01.954Z,91.77
2022-09-23T02:05:01.599Z,93.4
2022-09-23T02:05:02.163Z,93.4
2022-09-23T02:10:01.281Z,94.25
2022-09-23T02:10:02.110Z,94.25
2022-09-23T02:15:01.524Z,95.01
2022-09-23T02:15:01.765Z,95.01
2022-09-23T02:20:01.579Z,95.38
2022-09-23T02:20:02.048Z,95.38
2022-09-23T02:25:01.960Z,96.28
2022-09-23T02:25:01.985Z,96.28
2022-09-23T02:30:01.147Z,96.57
2022-09-23T02:30:01.403Z,96.57
2022-09-23T02:35:01.299Z,96.93
2022-09-23T02:35:02.340Z,96.93
2022-09-23T02:40:01.451Z,97.47
2022-09-23T02:40:02.277Z,97.47
2022-09-23T02:45:01.354Z,97.96
2022-09-23T02:45:01.508Z,97.96
2022-09-23T02:50:01.161Z,97.9
2022-09-23T02:50:01.410Z,97.9
2022-09-23T02:55:01.617Z,97.94
2022-09-23T02:55:02.265Z,97.94
2022-09-23T03:00:01.705Z,98.16
2022-09-23T03:00:02.091Z,98.16
2022-09-23T03:05:01.316Z,96.73
2022-09-23T03:05:02.275Z,96.73
2022-09-23T03:10:01.482Z,94.35
2022-09-23T03:10:02.081Z,94.35
2022-09-23T03:15:01.211Z,92.04
2022-09-23T03:15:02.129Z,92.04
2022-09-23T03:20:01.303Z,91.86
2022-09-23T03:20:02.162Z,91.86
2022-09-23T03:25:01.495Z,90.45
2022-09-23T03:25:01.894Z,90.45
2022-09-23T03:30:01.599Z,90.32
2022-09-23T03:30:01.763Z,90.32
2022-09-23T03:35:01.164Z,90.34
2022-09-23T03:35:01.666Z,90.34
2022-09-23T03:40:01.622Z,91.48
2022-09-23T03:40:01.936Z,91.48
2022-09-23T03:45:01.466Z,92.41
2022-09-23T03:45:01.555Z,92.41
2022-09-23T03:50:01.158Z,92.42
2022-09-23T03:50:01.907Z,92.42
2022-09-23T03:55:02.007Z,93.72
2022-09-23T03:55:02.037Z,93.72
2022-09-23T04:00:01.435Z,94.19
2022-09-23T04:00:01.941Z,94.19
2022-09-23T04:05:01.670Z,94.38
2022-09-23T04:05:01.834Z,94.38
2022-09-23T04:10:01.535Z,94.89
2022-09-23T04:10:01.601Z,94.89
2022-09-23T04:15:01.801Z,93.96
2022-09-23T04:15:01.964Z,93.96
2022-09-23T04:20:01.273Z,91.71
2022-09-23T04:20:01.421Z,91.71
2022-09-23T04:25:01.693Z,90.26
2022-09-23T04:25:01.864Z,90.26
2022-09-23T04:30:01.653Z,89.49
2022-09-23T04:30:01.855Z,89.49
2022-09-23T04:35:01.880Z,89.01
2022-09-23T04:35:02.072Z,89.01
2022-09-23T04:40:01.412Z,88.79
2022-09-23T04:40:02.025Z,88.79
2022-09-23T04:45:01.983Z,89.75
2022-09-23T04:45:02.197Z,89.75
2022-09-23T04:50:02.121Z,92.76
2022-09-23T04:50:02.125Z,92.76
2022-09-23T04:55:01.199Z,94.87
2022-09-23T04:55:01.324Z,94.87
2022-09-23T05:00:01.676Z,95.88
2022-09-23T05:00:02.117Z,95.88
2022-09-23T05:05:01.281Z,96.44
2022-09-23T05:05:01.420Z,96.44
2022-09-23T05:10:01.652Z,97.02
2022-09-23T05:10:02.177Z,97.02
2022-09-23T05:15:01.144Z,96.96
2022-09-23T05:15:02.015Z,96.96
2022-09-23T05:20:01.130Z,96.02
2022-09-23T05:20:01.961Z,96.02
2022-09-23T05:25:01.722Z,94.38
2022-09-23T05:25:02.002Z,94.38
2022-09-23T05:30:01.301Z,92.51
2022-09-23T05:30:01.783Z,92.51
2022-09-23T05:35:01.515Z,91
2022-09-23T05:35:01.681Z,91
2022-09-23T05:40:01.673Z,89.83
2022-09-23T05:40:01.715Z,89.83
2022-09-23T05:45:01.145Z,88.91
2022-09-23T05:45:02.173Z,88.91
2022-09-23T05:50:01.476Z,88.22
2022-09-23T05:50:01.752Z,88.22
2022-09-23T05:55:01.601Z,87.97
2022-09-23T05:55:02.001Z,87.97
2022-09-23T06:00:02.454Z,87.68
2022-09-23T06:00:02.487Z,87.68
2022-09-23T06:05:01.765Z,87.59
2022-09-23T06:10:02.025Z,87.33
2022-09-23T06:15:01.315Z,86.99
2022-09-23T06:20:01.598Z,87.21
2022-09-23T06:25:02.434Z,88.85
2022-09-23T06:30:01.753Z,89.85
2022-09-23T06:35:02.599Z,88.62
2022-09-23T06:40:02.237Z,86.85
2022-09-23T06:45:02.158Z,86.79
2022-09-23T06:50:02.561Z,86.44
2022-09-23T06:55:01.688Z,84.89
2022-09-23T07:00:02.283Z,84.69
2022-09-23T07:05:01.866Z,84.41
2022-09-23T07:10:02.161Z,84.35
2022-09-23T07:15:02.369Z,83.33
2022-09-23T07:20:02.428Z,83.51
2022-09-23T07:25:01.594Z,82.95
2022-09-23T07:30:01.941Z,82.14
2022-09-23T07:35:01.892Z,81.48
2022-09-23T07:40:02.356Z,81.16
2022-09-23T07:45:02.025Z,80.25
2022-09-23T07:50:02.355Z,79.87
2022-09-23T07:55:01.764Z,78.19
2022-09-23T08:00:02.871Z,77.18
2022-09-23T08:05:02.914Z,77.35
2022-09-23T08:10:02.200Z,76.71
2022-09-23T08:15:03.621Z,76.66
2022-09-23T08:20:02.537Z,76.31
2022-09-23T08:25:02.244Z,76.18
2022-09-23T08:30:02.650Z,75.07
2022-09-23T08:35:01.971Z,75.14
2022-09-23T08:40:02.088Z,74.27
2022-09-23T08:45:02.734Z,75.09
2022-09-23T08:50:01.544Z,74.45
2022-09-23T08:55:02.343Z,74.17
2022-09-23T09:00:01.804Z,74.09
2022-09-23T09:05:02.144Z,75.07
2022-09-23T09:10:02.236Z,74.19
2022-09-23T09:15:01.942Z,74.19
2022-09-23T09:20:01.912Z,76.31
2022-09-23T09:25:01.752Z,76.68
2022-09-23T09:30:02.435Z,77.13
2022-09-23T09:35:02.167Z,77.85
2022-09-23T09:40:01.595Z,77.7
2022-09-23T09:45:02.316Z,77.99
2022-09-23T09:50:02.160Z,77.26
2022-09-23T09:55:01.562Z,76.74
2022-09-23T10:00:01.729Z,76.81
2022-09-23T10:05:02.596Z,76.33
2022-09-23T10:10:15.993Z,75.09
2022-09-23T10:15:01.789Z,75.88
2022-09-23T10:20:02.651Z,74.99
2022-09-23T10:25:01.640Z,71.87
2022-09-23T10:30:02.354Z,71.48
2022-09-23T10:35:02.161Z,71.46
2022-09-23T10:40:02.290Z,71.43
2022-09-23T10:45:01.759Z,69.74
2022-09-23T10:50:02.347Z,70.3
2022-09-23T10:55:02.547Z,68.9
2022-09-23T11:00:02.726Z,67.86
2022-09-23T11:05:02.683Z,64.74
2022-09-23T11:10:02.081Z,65.61
2022-09-23T11:15:01.499Z,64.77
2022-09-23T11:20:01.680Z,62.74
2022-09-23T11:25:03.443Z,64.29
2022-09-23T11:30:01.984Z,63.21
2022-09-23T11:35:02.007Z,63.47
2022-09-23T11:40:02.398Z,62.68
2022-09-23T11:45:01.655Z,65.18
2022-09-23T11:50:02.489Z,64.32
2022-09-23T11:55:05.655Z,60.64
2022-09-23T12:00:02.330Z,61.26
2022-09-23T12:05:02.706Z,63.77
2022-09-23T12:10:01.838Z,61.03
2022-09-23T12:15:02.407Z,62.49
2022-09-23T12:20:02.029Z,62.04
2022-09-23T12:25:01.891Z,60.62
2022-09-23T12:30:02.003Z,62.15
2022-09-23T12:35:01.905Z,61.97
2022-09-23T12:40:02.005Z,61.39
2022-09-23T12:45:02.085Z,60.89
2022-09-23T12:50:01.434Z,61.61
2022-09-23T12:55:01.992Z,62.54
2022-09-23T13:00:01.627Z,60.79
2022-09-23T13:05:02.204Z,60.45
2022-09-23T13:10:01.483Z,60.78
2022-09-23T13:15:01.375Z,61.11
2022-09-23T13:20:01.902Z,60.69
2022-09-23T13:25:01.865Z,60.52
2022-09-23T13:30:01.428Z,60.5
2022-09-23T13:35:01.463Z,59.01
2022-09-23T13:40:01.253Z,60.15
2022-09-23T13:45:02.167Z,59.74
2022-09-23T13:50:01.581Z,59.75
2022-09-23T13:55:01.331Z,60.09
2022-09-23T14:00:01.301Z,61.21
2022-09-23T14:05:01.597Z,61.89
2022-09-23T14:10:01.962Z,63.61
2022-09-23T14:15:01.741Z,64.9
2022-09-23T14:20:01.307Z,65.4
2022-09-23T14:25:02.017Z,64.73
2022-09-23T14:30:01.387Z,65.13
2022-09-23T14:35:01.301Z,65.59
2022-09-23T14:40:02.021Z,64.35
2022-09-23T14:45:02.195Z,67.22
2022-09-23T14:50:01.312Z,65.45
2022-09-23T14:55:02.124Z,65.64
2022-09-23T15:00:01.567Z,66.48
2022-09-23T15:05:01.776Z,68.05
2022-09-23T15:10:01.395Z,66.71
2022-09-23T15:15:01.958Z,74.67
2022-09-23T15:20:01.989Z,76.26
2022-09-23T15:25:01.828Z,77.46
2022-09-23T15:30:02.293Z,79.04
2022-09-23T15:35:01.453Z,78.64
2022-09-23T15:40:02.098Z,78.87
2022-09-23T15:45:02.262Z,80.54
2022-09-23T15:50:02.228Z,75.21
2022-09-23T15:55:01.760Z,77.84
2022-09-23T16:00:01.458Z,79.49
2022-09-23T16:05:01.409Z,79.73
2022-09-23T16:10:01.456Z,78.87
2022-09-23T16:15:01.559Z,78.39
2022-09-23T16:20:01.890Z,79.35
2022-09-23T16:25:01.913Z,82.25
2022-09-23T16:30:01.372Z,81.64
2022-09-23T16:35:01.626Z,81.98
2022-09-23T16:40:01.516Z,81.71
2022-09-23T16:45:02.151Z,83.41
2022-09-23T16:50:01.761Z,84.45
2022-09-23T16:55:02.134Z,82.48
2022-09-23T17:00:02.070Z,82.36
2022-09-23T17:05:01.639Z,82.63
2022-09-23T17:10:02.087Z,83.99
2022-09-23T17:15:01.309Z,84.27
2022-09-23T17:20:01.651Z,85.34
2022-09-23T17:25:01.283Z,83.79
2022-09-23T17:30:01.448Z,85.26
2022-09-23T17:35:01.816Z,84.44
2022-09-23T17:40:02.087Z,85.18
2022-09-23T17:45:01.872Z,85.46
2022-09-23T17:50:01.888Z,85.95
2022-09-23T17:55:02.107Z,86.19
2022-09-23T18:00:01.839Z,87.1
2022-09-23T18:05:01.278Z,88.02
2022-09-23T18:10:02.088Z,87.22
2022-09-23T18:15:01.381Z,89.16
2022-09-23T18:20:01.654Z,88.33
2022-09-23T18:25:13.088Z,89.89
2022-09-23T18:30:02.212Z,89.42
2022-09-23T18:35:01.852Z,89.92
2022-09-23T18:40:01.877Z,90.68
2022-09-23T18:45:01.420Z,90.64
2022-09-23T18:50:02.040Z,91.13
2022-09-23T18:55:02.073Z,91.62
2022-09-23T19:00:01.594Z,91.02
2022-09-23T19:05:01.957Z,91.41
2022-09-23T19:10:01.386Z,90.94
2022-09-23T19:15:01.720Z,91.03
2022-09-23T19:20:01.813Z,91.38
2022-09-23T19:25:01.315Z,91.06
2022-09-23T19:30:02.109Z,91.3
2022-09-23T19:35:01.623Z,91.38
2022-09-23T19:40:02.168Z,91.39
2022-09-23T19:45:01.564Z,91.76
2022-09-23T19:50:01.991Z,90.72
2022-09-23T19:55:01.519Z,90.26
2022-09-23T20:00:01.644Z,90.71
2022-09-23T20:05:02.103Z,90.42
2022-09-23T20:10:01.899Z,91.98
2022-09-23T20:15:02.263Z,91.98
2022-09-23T20:20:02.146Z,92.14
2022-09-23T20:25:02.014Z,92.48
2022-09-23T20:30:02.440Z,90.99
2022-09-23T20:35:01.771Z,92.67
2022-09-23T20:40:02.107Z,92.67
2022-09-23T20:45:02.151Z,92.69
2022-09-23T20:50:01.859Z,93.34
2022-09-23T20:55:02.183Z,91.83
2022-09-23T21:00:01.518Z,90.67
2022-09-23T21:05:02.053Z,89.95
2022-09-23T21:10:02.154Z,90.61
2022-09-23T21:15:01.437Z,90
2022-09-23T21:20:01.317Z,91.03
2022-09-23T21:25:27.056Z,92.23
2022-09-23T21:30:01.507Z,92.53
2022-09-23T21:35:02.169Z,92.69
2022-09-23T21:40:02.140Z,92.26
2022-09-23T21:45:01.369Z,91.13
2022-09-23T21:50:01.412Z,91.28
2022-09-23T21:55:02.122Z,90.32
2022-09-23T22:00:02.132Z,89.57
2022-09-23T22:05:01.373Z,89.23
2022-09-23T22:10:02.142Z,89.07
2022-09-23T22:15:01.596Z,88.72
2022-09-23T22:20:02.202Z,88.51
2022-09-23T22:25:01.904Z,88.95
2022-09-23T22:30:01.957Z,89.62
2022-09-23T22:35:02.080Z,89.56
2022-09-23T22:40:01.437Z,89.29
2022-09-23T22:45:02.227Z,89.35
2022-09-23T22:50:02.073Z,90.36
2022-09-23T22:55:01.685Z,90.71
2022-09-23T23:00:01.587Z,91
2022-09-23T23:05:01.686Z,91.27
2022-09-23T23:10:01.532Z,92.96
2022-09-23T23:15:01.389Z,93.55
2022-09-23T23:20:01.967Z,93.15
2022-09-23T23:25:01.896Z,94.21
2022-09-23T23:30:01.884Z,92.98
2022-09-23T23:35:02.013Z,92.16
2022-09-23T23:40:01.425Z,92.4
2022-09-23T23:45:01.844Z,91.63
2022-09-23T23:50:01.714Z,91.31
2022-09-23T23:55:01.750Z,90.54
